Time;durP1;ratioP1;P1;durP2;ratioP2;P2;SDS_P1;SDS_P2;PMS_P1;PMS_P2;Temp;Humidity;BMP_temperature;BMP_pressure;BME280_temperature;BME280_humidity;BME280_pressure;Samples;Min_cycle;Max_cycle;Signal;HPM_P1;HPM_P2
2021/09/28 00:00:51;;;;;;;13.13;11.77;;;;;;;16.09;95.05;96292.00;6246277;23;20004;-91
2021/09/28 00:03:17;;;;;;;13.05;11.30;;;;;;;16.23;94.68;96310.19;6247736;23;20011;-93
2021/09/28 00:05:44;;;;;;;13.50;12.10;;;;;;;16.36;94.80;96326.91;6247854;23;20008;-94
2021/09/28 00:08:09;;;;;;;12.82;11.52;;;;;;;16.22;95.05;96306.69;6247590;23;20489;-93
2021/09/28 00:10:36;;;;;;;14.77;13.27;;;;;;;16.32;94.89;96317.44;6247651;23;20008;-93
2021/09/28 00:13:06;;;;;;;12.98;11.52;;;;;;;16.21;94.40;96304.47;6247663;23;20001;-92
2021/09/28 00:15:32;;;;;;;14.95;12.32;;;;;;;16.36;94.82;96339.84;6247715;23;20008;-93
2021/09/28 00:17:58;;;;;;;14.32;12.88;;;;;;;16.34;95.32;96332.13;6247646;23;20094;-93
2021/09/28 00:20:24;;;;;;;13.45;12.05;;;;;;;16.22;94.50;96314.16;6247557;23;20067;-93
2021/09/28 00:22:54;;;;;;;13.57;12.07;;;;;;;16.30;95.40;96325.38;6247514;23;20451;-93
2021/09/28 00:25:21;;;;;;;14.13;12.73;;;;;;;16.41;94.24;96341.84;6247687;23;20053;-93
2021/09/28 00:27:46;;;;;;;14.75;12.57;;;;;;;16.29;94.40;96321.16;6247441;23;20042;-93
2021/09/28 00:30:12;;;;;;;15.43;13.82;;;;;;;16.27;94.68;96320.91;6247343;23;20425;-92
2021/09/28 00:32:38;;;;;;;13.18;11.88;;;;;;;16.19;93.84;96298.72;6247519;23;20004;-92
2021/09/28 00:35:04;;;;;;;12.93;11.52;;;;;;;16.16;94.49;96310.69;6247523;23;20008;-93
2021/09/28 00:37:30;;;;;;;13.77;12.40;;;;;;;16.19;94.36;96307.69;6247516;23;20000;-92
2021/09/28 00:39:55;;;;;;;14.88;13.45;;;;;;;16.22;94.21;96316.91;6247215;23;20008;-92
2021/09/28 00:42:21;;;;;;;13.70;12.30;;;;;;;16.37;93.69;96330.38;6247252;23;20004;-93
2021/09/28 00:44:47;;;;;;;15.30;13.23;;;;;;;16.27;93.19;96315.44;6247379;23;20014;-93
2021/09/28 00:47:14;;;;;;;13.70;12.23;;;;;;;16.17;94.47;96303.94;6222063;23;20012;-93
2021/09/28 00:49:42;;;;;;;14.57;13.10;;;;;;;16.16;94.54;96286.03;6247419;23;20429;-93
2021/09/28 00:52:10;;;;;;;13.40;12.00;;;;;;;16.36;94.62;96323.41;6247441;23;20007;-93
2021/09/28 00:54:37;;;;;;;13.27;11.88;;;;;;;16.12;94.24;96288.25;6247138;23;20015;-93
2021/09/28 00:57:08;;;;;;;14.85;13.00;;;;;;;16.09;94.46;96287.25;6247307;23;20027;-92
2021/09/28 01:02:56;;;;;;;13.18;11.73;;;;;;;16.12;94.09;96282.78;6248680;23;20015;-92
2021/09/28 01:05:22;;;;;;;13.13;11.68;;;;;;;16.24;93.80;96306.97;6247258;23;20023;-92
2021/09/28 01:07:47;;;;;;;11.95;10.82;;;;;;;16.12;93.70;96282.78;6247239;23;20440;-93
2021/09/28 01:10:14;;;;;;;12.57;11.27;;;;;;;16.17;94.12;96298.47;6247061;23;20008;-93
2021/09/28 01:12:40;;;;;;;14.63;12.57;;;;;;;16.27;93.63;96307.94;6246670;23;20023;-93
2021/09/28 01:15:06;;;;;;;13.57;12.18;;;;;;;16.10;94.02;96294.22;6247090;23;20008;-93
2021/09/28 01:17:31;;;;;;;12.80;11.30;;;;;;;16.21;93.87;96301.72;6247030;23;20433;-93
2021/09/28 01:19:57;;;;;;;14.98;12.35;;;;;;;16.19;93.64;96299.50;6246911;23;20016;-93
2021/09/28 01:22:23;;;;;;;13.05;11.68;;;;;;;16.08;93.89;96287.75;6247017;23;20380;-92
2021/09/28 01:24:49;;;;;;;14.05;12.13;;;;;;;16.07;94.56;96284.25;6246951;23;20459;-93
2021/09/28 01:27:17;;;;;;;62.10;14.88;;;;;;;16.23;94.70;96315.66;6246880;23;20004;-94
2021/09/28 01:29:43;;;;;;;12.13;10.88;;;;;;;16.20;94.19;96316.66;6247046;23;20000;-94
2021/09/28 01:32:09;;;;;;;14.00;12.60;;;;;;;16.06;94.37;96287.50;6246952;23;20030;-93
2021/09/28 01:34:34;;;;;;;14.02;12.52;;;;;;;16.17;94.20;96310.19;6246923;23;20004;-93
2021/09/28 01:37:00;;;;;;;14.80;13.00;;;;;;;15.99;94.43;96291.47;6246926;23;20015;-94
2021/09/28 01:39:25;;;;;;;16.15;13.05;;;;;;;15.88;94.11;96281.25;6246945;23;20015;-94
2021/09/28 01:41:54;;;;;;;13.82;12.48;;;;;;;16.00;94.30;96287.50;6246774;23;20118;-94
2021/09/28 01:44:21;;;;;;;15.13;12.70;;;;;;;16.03;93.81;96300.19;6246933;23;20029;-93
2021/09/28 01:46:49;;;;;;;15.40;13.23;;;;;;;16.11;94.00;96312.16;6246823;23;20004;-94
2021/09/28 01:49:17;;;;;;;14.38;12.88;;;;;;;15.95;94.07;96293.69;6246859;23;20004;-93
2021/09/28 01:51:43;;;;;;;15.93;12.73;;;;;;;16.13;94.75;96317.13;6246874;23;20071;-93
2021/09/28 01:54:10;;;;;;;14.20;12.70;;;;;;;16.13;94.89;96319.88;6246851;23;20008;-93
2021/09/28 01:56:36;;;;;;;15.45;12.90;;;;;;;15.93;94.44;96296.94;6246803;23;20083;-94
2021/09/28 01:59:04;;;;;;;13.07;11.77;;;;;;;15.92;94.65;96297.41;6246708;23;20031;-93
2021/09/28 02:01:31;;;;;;;14.32;11.82;;;;;;;16.08;95.17;96321.34;6246657;23;20069;-94
2021/09/28 02:03:57;;;;;;;13.32;11.65;;;;;;;15.89;94.89;96288.22;6246668;23;20079;-93
2021/09/28 02:06:23;;;;;;;14.38;12.70;;;;;;;15.96;94.83;96301.41;6246673;23;20086;-94
2021/09/28 02:08:50;;;;;;;14.70;11.68;;;;;;;16.08;94.76;96317.88;6246717;23;20432;-94
2021/09/28 02:11:19;;;;;;;14.23;12.70;;;;;;;15.91;94.61;96299.41;6246508;23;20020;-94
2021/09/28 02:13:44;;;;;;;14.77;13.35;;;;;;;15.97;93.95;96300.16;6246586;23;20004;-94
2021/09/28 02:16:10;;;;;;;15.20;13.60;;;;;;;15.93;94.57;96302.41;6246562;23;20003;-93
2021/09/28 02:18:36;;;;;;;14.90;13.45;;;;;;;15.80;94.55;96279.47;6246542;23;20007;-93
2021/09/28 02:21:02;;;;;;;15.98;12.82;;;;;;;16.01;94.50;96310.16;6246472;23;20075;-94
2021/09/28 02:23:28;;;;;;;14.85;13.25;;;;;;;15.81;94.01;96270.75;6246004;23;20008;-93
2021/09/28 02:25:54;;;;;;;13.55;12.15;;;;;;;15.84;94.43;96285.47;6246478;23;20057;-94
2021/09/28 02:28:20;;;;;;;13.93;12.43;;;;;;;15.95;94.56;96299.94;6246461;23;20094;-93
2021/09/28 02:30:45;;;;;;;18.58;13.43;;;;;;;15.93;94.23;96305.16;6246516;23;20345;-93
2021/09/28 02:33:11;;;;;;;15.10;12.35;;;;;;;15.83;94.35;96286.72;6246504;23;19996;-93
2021/09/28 02:35:37;;;;;;;12.90;11.60;;;;;;;15.91;94.48;96310.38;6246325;23;20508;-93
2021/09/28 02:38:03;;;;;;;13.32;11.93;;;;;;;15.85;94.33;96300.66;6246693;23;20012;-93
2021/09/28 02:40:29;;;;;;;14.20;12.80;;;;;;;15.83;94.33;96289.44;6246295;23;20016;-94
2021/09/28 02:42:55;;;;;;;14.73;13.27;;;;;;;15.87;94.51;96303.63;6246304;23;20449;-93
2021/09/28 02:45:21;;;;;;;15.07;13.30;;;;;;;15.97;94.50;96313.88;6246178;23;20011;-92
2021/09/28 02:47:47;;;;;;;14.70;13.07;;;;;;;15.78;94.53;96279.97;6246363;23;20004;-94
2021/09/28 02:50:13;;;;;;;14.55;13.13;;;;;;;15.87;94.80;96296.19;6246413;23;20004;-95
2021/09/28 02:52:38;;;;;;;14.80;13.30;;;;;;;15.80;94.59;96288.44;6246304;23;20420;-93
2021/09/28 02:55:06;;;;;;;15.27;13.77;;;;;;;15.90;94.11;96297.91;6246496;23;20348;-93
2021/09/28 02:57:31;;;;;;;14.60;13.07;;;;;;;15.87;94.29;96293.44;6245970;23;20003;-92
2021/09/28 02:59:57;;;;;;;16.67;13.77;;;;;;;15.78;94.63;96285.44;6246118;23;20015;-93
2021/09/28 03:02:22;;;;;;;14.02;12.52;;;;;;;15.73;94.40;96271.75;6246143;23;20008;-93
2021/09/28 03:04:48;;;;;;;14.85;13.20;;;;;;;15.74;94.64;96284.94;6246062;23;20012;-92
2021/09/28 03:07:14;;;;;;;16.55;13.65;;;;;;;15.82;93.97;96287.94;6246073;23;20374;-94
2021/09/28 03:09:44;;;;;;;16.52;14.77;;;;;;;15.80;94.43;96302.13;6246171;23;20432;-94
2021/09/28 03:12:10;;;;;;;16.00;13.80;;;;;;;15.79;94.28;96297.16;6245909;23;20020;-93
2021/09/28 03:14:36;;;;;;;15.98;13.90;;;;;;;15.76;94.05;96307.09;6246139;23;20008;-94
2021/09/28 03:17:02;;;;;;;13.75;12.32;;;;;;;15.82;93.76;96299.66;6246004;23;20478;-93
2021/09/28 03:19:27;;;;;;;14.18;12.75;;;;;;;15.82;94.42;96296.91;6246196;23;20000;-93
2021/09/28 03:21:53;;;;;;;16.13;14.45;;;;;;;15.82;94.35;96299.66;6245955;23;20098;-94
2021/09/28 03:24:19;;;;;;;20.33;14.18;;;;;;;15.96;93.88;96308.88;6246215;23;20004;-93
2021/09/28 03:26:45;;;;;;;17.95;13.95;;;;;;;15.67;93.84;96272.47;6246103;23;20008;-93
2021/09/28 03:29:12;;;;;;;16.60;14.18;;;;;;;15.93;94.34;96312.63;6246025;23;20464;-93
2021/09/28 03:31:38;;;;;;;15.95;13.70;;;;;;;15.80;94.39;96307.59;6245879;23;20008;-93
2021/09/28 03:34:03;;;;;;;16.15;14.45;;;;;;;15.90;93.93;96330.03;6245872;23;20432;-93
2021/09/28 03:36:29;;;;;;;15.02;13.45;;;;;;;15.72;94.35;96306.59;6245808;23;20016;-93
2021/09/28 03:38:54;;;;;;;15.35;13.85;;;;;;;15.64;94.40;96298.09;6245872;23;20004;-92
2021/09/28 03:41:20;;;;;;;18.33;13.57;;;;;;;15.67;94.73;96305.31;6245881;23;20325;-93
2021/09/28 03:43:45;;;;;;;16.20;13.45;;;;;;;15.73;93.97;96313.56;6245899;23;20000;-93
2021/09/28 03:46:11;;;;;;;18.05;14.18;;;;;;;15.61;94.04;96296.31;6245892;23;20019;-93
2021/09/28 03:48:37;;;;;;;15.55;13.95;;;;;;;15.66;94.10;96320.25;6246055;23;20004;-93
2021/09/28 03:51:03;;;;;;;15.65;14.05;;;;;;;15.59;94.79;96298.03;6245754;23;20008;-92
2021/09/28 03:53:29;;;;;;;18.95;14.45;;;;;;;15.59;94.32;96301.53;6245863;23;20000;-94
2021/09/28 03:55:55;;;;;;;21.23;14.02;;;;;;;15.49;94.20;96294.75;6245816;23;20058;-93
2021/09/28 03:58:21;;;;;;;16.98;14.07;;;;;;;15.57;94.40;96308.75;6245768;23;20008;-91
2021/09/28 04:00:47;;;;;;;15.13;13.57;;;;;;;15.67;94.07;96335.44;6245537;23;20019;-93
2021/09/28 04:03:12;;;;;;;14.52;13.00;;;;;;;15.54;94.16;96313.19;6245772;23;20008;-92
2021/09/28 04:05:39;;;;;;;16.02;14.10;;;;;;;15.59;94.27;96328.16;6245756;23;20417;-92
2021/09/28 04:08:05;;;;;;;16.15;14.48;;;;;;;15.68;94.55;96341.66;6245764;23;20004;-93
2021/09/28 04:10:35;;;;;;;15.85;14.15;;;;;;;15.64;94.31;96332.94;6245339;23;20004;-93
2021/09/28 04:13:02;;;;;;;16.20;14.50;;;;;;;15.54;94.53;96317.94;6246103;23;20413;-92
2021/09/28 04:15:28;;;;;;;16.15;14.50;;;;;;;15.65;94.45;96340.63;6245624;23;20004;-93
2021/09/28 04:17:53;;;;;;;17.63;15.70;;;;;;;15.51;94.65;96322.41;6245903;23;20016;-92
2021/09/28 04:20:19;;;;;;;18.48;15.40;;;;;;;15.53;94.86;96330.13;6245658;23;20087;-93
2021/09/28 04:22:45;;;;;;;17.52;15.32;;;;;;;15.65;95.11;96343.38;6245503;23;20083;-94
2021/09/28 04:25:12;;;;;;;17.75;15.05;;;;;;;15.61;94.62;96331.91;6245666;23;20000;-92
2021/09/28 04:27:38;;;;;;;17.73;15.32;;;;;;;15.51;94.25;96322.41;6245863;23;20337;-93
2021/09/28 04:30:05;;;;;;;17.73;15.02;;;;;;;15.69;94.02;96346.63;6245790;23;20004;-93
2021/09/28 04:32:30;;;;;;;15.27;13.77;;;;;;;15.50;94.18;96312.69;6245741;23;20004;-92
2021/09/28 04:34:56;;;;;;;17.00;15.20;;;;;;;15.49;94.20;96321.38;6245570;23;20318;-93
2021/09/28 04:37:22;;;;;;;18.95;16.20;;;;;;;15.52;94.05;96321.16;6245734;23;20069;-92
2021/09/28 04:39:47;;;;;;;16.15;14.40;;;;;;;15.53;94.25;96333.59;6271169;22;20008;-92
2021/09/28 04:42:34;;;;;;;17.15;14.95;;;;;;;15.60;94.47;96346.81;6245261;23;20429;-92
2021/09/28 04:45:00;;;;;;;17.08;15.02;;;;;;;15.49;94.36;96335.81;6244393;23;20391;-92
2021/09/28 04:47:25;;;;;;;17.90;15.70;;;;;;;15.55;94.37;96342.06;6242607;23;20036;-92
2021/09/28 04:49:59;;;;;;;17.17;14.32;;;;;;;15.59;94.46;96352.78;6250270;23;20038;-91
2021/09/28 04:52:25;;;;;;;17.92;14.90;;;;;;;15.49;94.69;96335.06;6246612;23;20000;-91
2021/09/28 04:54:50;;;;;;;18.73;14.60;;;;;;;15.53;94.42;96344.53;6246851;23;20066;-91
2021/09/28 04:57:16;;;;;;;20.48;15.10;;;;;;;15.42;94.33;96330.81;6246996;23;20011;-91
2021/09/28 04:59:42;;;;;;;16.58;14.60;;;;;;;15.64;94.38;96361.03;6246783;23;20000;-91
2021/09/28 05:02:07;;;;;;;19.20;15.35;;;;;;;15.45;94.20;96324.38;6246616;23;20007;-91
2021/09/28 05:04:33;;;;;;;17.70;15.85;;;;;;;15.63;94.33;96362.28;6246334;23;20004;-91
2021/09/28 05:06:59;;;;;;;21.05;16.25;;;;;;;15.49;95.06;96348.75;6246358;23;20004;-92
2021/09/28 05:09:24;;;;;;;17.05;15.30;;;;;;;15.36;95.47;96325.31;6246049;23;20078;-90
2021/09/28 05:11:50;;;;;;;19.17;15.32;;;;;;;15.44;94.95;96331.81;6246159;23;20345;-91
2021/09/28 05:14:16;;;;;;;16.60;13.73;;;;;;;15.42;95.23;96336.28;6246270;23;20008;-91
2021/09/28 05:16:41;;;;;;;16.98;14.65;;;;;;;15.48;95.46;96350.75;6245718;23;20019;-91
2021/09/28 05:19:07;;;;;;;20.20;15.63;;;;;;;15.39;95.27;96332.56;6246113;23;20015;-92
2021/09/28 05:21:33;;;;;;;18.60;16.55;;;;;;;15.59;95.20;96363.72;6246547;23;20011;-94
2021/09/28 05:23:59;;;;;;;20.27;16.35;;;;;;;15.48;95.95;96347.25;6246568;23;20004;-92
2021/09/28 05:26:24;;;;;;;19.25;16.08;;;;;;;15.52;95.29;96353.25;6246912;23;20015;-92
2021/09/28 05:28:50;;;;;;;19.27;16.08;;;;;;;15.55;95.25;96352.25;6245729;23;20000;-91
2021/09/28 05:31:16;;;;;;;19.45;16.88;;;;;;;15.51;95.54;96352.50;6246072;23;20501;-92
2021/09/28 05:33:42;;;;;;;18.83;16.35;;;;;;;15.65;94.95;96376.22;6246593;23;19996;-91
2021/09/28 05:36:08;;;;;;;20.90;16.45;;;;;;;15.44;95.08;96334.53;6246550;23;20317;-93
2021/09/28 05:38:33;;;;;;;19.20;16.15;;;;;;;15.46;95.07;96345.75;6245488;23;20038;-91
2021/09/28 05:40:59;;;;;;;18.83;15.40;;;;;;;15.50;95.12;96358.44;6244926;23;20008;-91
2021/09/28 05:43:26;;;;;;;17.52;15.35;;;;;;;15.33;94.99;96344.69;6246429;23;20489;-92
2021/09/28 05:45:51;;;;;;;17.52;15.38;;;;;;;15.53;94.78;96362.97;6246017;23;20118;-91
2021/09/28 05:48:17;;;;;;;17.38;14.57;;;;;;;15.44;94.76;96352.94;6246084;23;20098;-91
2021/09/28 05:50:45;;;;;;;17.27;15.20;;;;;;;15.68;94.86;96383.47;6246414;23;20016;-91
2021/09/28 05:53:11;;;;;;;17.15;15.35;;;;;;;15.45;95.59;96359.94;6246422;23;20007;-91
2021/09/28 05:55:37;;;;;;;16.88;14.93;;;;;;;15.49;94.80;96362.44;6246078;23;20087;-91
2021/09/28 05:58:03;;;;;;;17.08;14.52;;;;;;;15.51;94.67;96365.44;6245093;23;20000;-92
2021/09/28 06:00:29;;;;;;;18.75;15.85;;;;;;;15.46;94.88;96364.91;6244998;23;20031;-91
2021/09/28 06:02:54;;;;;;;17.92;15.45;;;;;;;15.50;94.79;96375.66;6245527;23;20007;-91
2021/09/28 06:05:21;;;;;;;18.05;15.55;;;;;;;15.41;94.65;96356.69;6246497;23;20004;-92
2021/09/28 06:07:47;;;;;;;18.42;15.55;;;;;;;15.56;94.59;96384.63;6246026;23;20004;-91
2021/09/28 06:10:13;;;;;;;18.17;15.32;;;;;;;15.49;94.55;96363.19;6245900;23;20008;-91
2021/09/28 06:12:40;;;;;;;17.48;15.45;;;;;;;15.67;94.84;96395.66;6245995;23;20016;-91
2021/09/28 06:15:06;;;;;;;21.85;15.80;;;;;;;15.48;93.96;96371.88;6246738;23;20008;-91
2021/09/28 06:17:31;;;;;;;16.65;14.48;;;;;;;15.52;94.37;96369.69;6245839;23;20000;-92
2021/09/28 06:19:57;;;;;;;18.67;15.00;;;;;;;15.48;94.72;96372.63;6246134;23;20397;-92
2021/09/28 06:22:22;;;;;;;19.55;15.38;;;;;;;15.46;95.07;96372.38;6245128;23;20015;-93
2021/09/28 06:24:48;;;;;;;17.98;15.60;;;;;;;15.61;94.18;96383.91;6245388;23;20107;-91
2021/09/28 06:27:13;;;;;;;16.08;14.38;;;;;;;15.59;94.17;96382.88;6245609;23;20008;-91
2021/09/28 06:29:39;;;;;;;17.33;14.77;;;;;;;15.52;93.82;96367.69;6245755;23;20008;-91
2021/09/28 06:32:05;;;;;;;16.85;15.13;;;;;;;15.60;93.91;96382.38;6245520;23;20000;-93
2021/09/28 06:34:30;;;;;;;20.42;15.80;;;;;;;15.65;93.27;96383.69;6245174;23;20000;-91
2021/09/28 06:36:56;;;;;;;17.48;15.32;;;;;;;15.63;93.71;96395.13;6244873;23;20083;-91
2021/09/28 06:39:21;;;;;;;16.85;15.05;;;;;;;15.70;93.29;96394.66;6244364;23;20483;-91
2021/09/28 06:41:47;;;;;;;19.45;15.02;;;;;;;15.78;93.17;96399.69;6245562;23;20003;-91
2021/09/28 06:44:13;;;;;;;17.02;14.13;;;;;;;15.73;93.26;96392.94;6245658;23;20008;-92
2021/09/28 06:46:38;;;;;;;17.67;15.23;;;;;;;15.77;93.47;96396.22;6245007;23;20004;-91
2021/09/28 06:49:04;;;;;;;16.23;14.35;;;;;;;15.93;93.30;96413.97;6245057;23;20015;-91
2021/09/28 06:51:30;;;;;;;18.17;14.52;;;;;;;15.87;93.78;96405.72;6238277;23;20337;-91
2021/09/28 06:53:55;;;;;;;18.63;14.30;;;;;;;15.81;93.38;96390.50;6244948;23;20006;-92
2021/09/28 06:56:21;;;;;;;17.95;14.65;;;;;;;15.82;92.90;96392.75;6245197;23;20066;-92
2021/09/28 06:58:47;;;;;;;18.45;15.55;;;;;;;15.83;92.06;96393.50;6245319;23;20074;-91
2021/09/28 07:01:13;;;;;;;15.82;14.13;;;;;;;15.89;91.75;96389.53;6245142;23;20007;-91
2021/09/28 07:03:39;;;;;;;20.95;15.00;;;;;;;16.12;92.60;96420.47;6245074;23;20010;-91
2021/09/28 07:06:05;;;;;;;20.50;16.08;;;;;;;15.96;91.38;96385.56;6244819;23;20099;-91
2021/09/28 07:08:31;;;;;;;18.05;14.73;;;;;;;16.23;90.66;96417.03;6245312;23;20011;-92
2021/09/28 07:10:56;;;;;;;19.88;14.88;;;;;;;16.09;90.90;96399.56;6245073;23;20023;-91
2021/09/28 07:13:22;;;;;;;18.90;15.10;;;;;;;16.14;89.89;96401.59;6245255;23;19996;-91
2021/09/28 07:15:47;;;;;;;19.05;14.60;;;;;;;16.27;89.62;96405.84;6246632;23;20012;-92
2021/09/28 07:18:13;;;;;;;19.10;14.77;;;;;;;16.23;88.70;96395.13;6245454;23;20030;-92
2021/09/28 07:20:39;;;;;;;16.65;13.60;;;;;;;16.45;87.50;96419.09;6245259;23;20340;-92
2021/09/28 07:23:05;;;;;;;15.35;12.88;;;;;;;16.49;86.90;96419.59;6244287;23;20641;-91
2021/09/28 07:25:31;;;;;;;18.30;12.82;;;;;;;16.48;87.53;96407.88;6244964;23;20004;-91
2021/09/28 07:28:00;;;;;;;15.32;13.63;;;;;;;16.42;87.63;96379.72;6245041;23;20310;-91
2021/09/28 07:30:31;;;;;;;15.07;12.38;;;;;;;16.71;86.07;96432.63;6244567;23;20038;-92
2021/09/28 07:32:57;;;;;;;13.77;11.15;;;;;;;16.58;87.37;96400.19;6244700;23;20011;-92
2021/09/28 07:35:23;;;;;;;13.38;11.98;;;;;;;16.56;87.20;96397.16;6244860;23;20011;-91
2021/09/28 07:37:49;;;;;;;12.77;10.77;;;;;;;16.81;84.29;96416.69;6244530;23;20004;-91
2021/09/28 07:40:16;;;;;;;12.70;10.55;;;;;;;16.64;86.25;96394.72;6245175;23;20008;-91
2021/09/28 07:42:42;;;;;;;11.32;10.13;;;;;;;16.75;85.70;96403.72;6244042;23;20389;-90
2021/09/28 07:45:08;;;;;;;11.75;9.30;;;;;;;16.90;85.82;96414.44;6244443;23;20011;-91
2021/09/28 07:47:33;;;;;;;12.48;11.18;;;;;;;16.79;85.09;96400.00;6243803;23;20087;-91
2021/09/28 07:49:59;;;;;;;12.95;11.18;;;;;;;16.91;100.00;68426.72;6243924;23;20000;-91
2021/09/28 07:52:25;;;;;;;9.65;8.65;;;;;;;16.67;73.43;96407.41;6243444;23;20000;-91
2021/09/28 07:54:50;;;;;;;9.57;8.50;;;;;;;16.59;74.28;96393.44;6245369;23;20028;-90
2021/09/28 07:57:16;;;;;;;9.90;8.90;;;;;;;16.59;74.28;96393.44;6244866;23;20011;-90
2021/09/28 07:59:41;;;;;;;9.05;8.07;;;;;;;16.77;73.74;96408.69;6243647;23;20004;-90
2021/09/28 08:02:07;;;;;;;9.23;8.27;;;;;;;16.77;73.05;96416.91;6244572;23;20008;-90
2021/09/28 08:04:38;;;;;;;9.57;8.57;;;;;;;16.77;73.05;96416.91;6244162;23;20087;-91
2021/09/28 08:07:07;;;;;;;15.63;9.32;;;;;;;16.97;76.54;96421.44;6243974;23;20027;-90
2021/09/28 08:09:33;;;;;;;14.13;9.73;;;;;;;16.97;76.54;96421.44;6244669;23;20058;-90
2021/09/28 08:11:59;;;;;;;10.82;9.32;;;;;;;16.97;76.54;96421.44;6244282;23;20023;-91
2021/09/28 08:14:24;;;;;;;13.73;8.27;;;;;;;16.98;76.41;96411.94;6244808;23;20329;-92
2021/09/28 08:16:50;;;;;;;9.07;8.20;;;;;;;16.98;76.41;96411.94;6245085;23;20004;-91
2021/09/28 08:19:15;;;;;;;10.43;7.65;;;;;;;17.14;70.16;96418.69;6244880;23;20099;-91
2021/09/28 08:21:43;;;;;;;8.63;7.40;;;;;;;17.09;68.51;96422.91;6244965;23;20008;-90
2021/09/28 08:24:09;;;;;;;9.63;7.18;;;;;;;17.15;73.08;96409.19;6245844;23;20008;-91
2021/09/28 08:29:09;;;;;;;8.48;6.82;;;;;;;17.20;70.16;96406.44;6248112;23;20015;-91
2021/09/28 08:31:41;;;;;;;10.02;7.10;;;;;;;17.37;70.35;96419.44;6246955;23;20000;-90
2021/09/28 08:34:07;;;;;;;9.57;7.95;;;;;;;17.61;69.57;96443.56;6246879;23;20000;-90
2021/09/28 08:36:34;;;;;;;8.55;7.75;;;;;;;17.65;69.17;96447.56;6245455;23;20419;-90
2021/09/28 08:39:00;;;;;;;9.60;8.43;;;;;;;17.52;69.13;96423.41;6245133;23;20000;-91
2021/09/28 08:41:26;;;;;;;9.73;7.55;;;;;;;17.62;66.08;96434.09;6243957;23;20004;-91
2021/09/28 08:43:52;;;;;;;11.80;8.40;;;;;;;17.52;68.62;96426.13;6245985;23;20085;-91
2021/09/28 08:46:19;;;;;;;15.77;8.88;;;;;;;17.41;69.50;96408.91;6245052;23;20000;-93
2021/09/28 08:48:47;;;;;;;10.02;8.20;;;;;;;17.66;71.93;96437.34;6243439;23;20004;-92
2021/09/28 08:51:13;;;;;;;10.38;7.57;;;;;;;17.67;70.51;96422.34;6246556;23;20394;-91
2021/09/28 08:53:39;;;;;;;8.20;6.63;;;;;;;17.73;69.36;96431.34;6246073;23;20004;-91
2021/09/28 08:56:07;;;;;;;9.55;7.43;;;;;;;17.60;66.23;96404.41;6246233;23;20777;-92
2021/09/28 08:58:34;;;;;;;10.60;8.02;;;;;;;17.54;69.86;96407.16;6246513;22;20031;-91
2021/09/28 09:01:07;;;;;;;8.98;8.07;;;;;;;17.52;69.60;96390.44;6246598;22;20015;-92
2021/09/28 09:03:34;;;;;;;16.85;7.97;;;;;;;17.79;64.42;96426.59;6246593;23;20032;-92
2021/09/28 09:06:02;;;;;;;12.38;7.88;;;;;;;17.79;65.85;96435.59;6246901;23;20015;-90
2021/09/28 09:08:33;;;;;;;9.77;8.55;;;;;;;17.59;67.41;96413.88;6246239;23;20065;-91
2021/09/28 09:11:02;;;;;;;10.40;7.85;;;;;;;17.80;67.67;96441.81;6245582;23;20024;-92
2021/09/28 09:13:55;;;;;;;11.50;7.88;;;;;;;17.58;65.09;96404.16;6246272;23;20448;-91
2021/09/28 09:16:20;;;;;;;9.25;7.43;;;;;;;17.46;65.05;96397.19;6244803;23;20095;-92
2021/09/28 09:18:49;;;;;;;8.20;7.13;;;;;;;17.60;66.01;96414.63;6246004;23;20035;-90
2021/09/28 09:21:15;;;;;;;9.23;6.97;;;;;;;17.75;65.91;96423.34;6246018;23;20004;-92
2021/09/28 09:23:50;;;;;;;9.30;8.30;;;;;;;17.73;63.21;96414.88;6245895;23;20004;-92
2021/09/28 09:26:21;;;;;;;8.20;7.40;;;;;;;17.70;63.89;96410.38;6246276;23;20004;-91
2021/09/28 09:28:52;;;;;;;9.73;7.57;;;;;;;17.77;65.30;96409.88;6245563;23;20428;-91
2021/09/28 09:31:21;;;;;;;8.60;7.70;;;;;;;18.01;65.67;96436.75;6245852;23;20004;-91
2021/09/28 09:33:48;;;;;;;8.93;7.40;;;;;;;17.89;63.73;96416.06;6245822;23;20012;-92
2021/09/28 09:36:19;;;;;;;8.55;7.15;;;;;;;17.84;61.77;96409.34;6237740;23;20051;-91
2021/09/28 09:38:49;;;;;;;10.13;7.57;;;;;;;17.80;61.82;96398.63;6246288;23;20038;-91
2021/09/28 09:41:15;;;;;;;;;;;;;;;18.12;62.49;96439.47;6247126;23;20008;-92
2021/09/28 09:43:43;;;;;;;9.30;7.05;;;;;;;18.15;62.59;96434.94;6245827;23;19915;-91
2021/09/28 09:46:09;;;;;;;8.40;7.50;;;;;;;18.08;60.51;96424.50;6246370;23;20023;-91
2021/09/28 09:48:35;;;;;;;9.55;7.50;;;;;;;18.06;62.86;96405.78;6245990;23;20004;-92
2021/09/28 09:51:11;;;;;;;10.80;7.03;;;;;;;18.22;62.32;96420.69;6245394;23;20011;-91
2021/09/28 09:53:52;;;;;;;10.77;7.43;;;;;;;17.93;61.23;96378.09;6245812;23;20000;-91
2021/09/28 09:56:18;;;;;;;8.57;6.72;;;;;;;18.15;62.29;96415.72;6246289;23;20425;-92
2021/09/28 09:58:44;;;;;;;9.18;7.53;;;;;;;18.08;61.43;96417.00;6245446;23;20046;-92
2021/09/28 10:01:09;;;;;;;12.10;7.35;;;;;;;18.09;60.30;96404.00;6245495;23;20004;-91
2021/09/28 10:03:38;;;;;;;7.55;6.75;;;;;;;18.14;59.78;96403.97;6245711;23;20015;-92
2021/09/28 10:06:05;;;;;;;9.75;7.32;;;;;;;18.16;61.58;96397.97;6239973;23;20011;-91
2021/09/28 10:08:32;;;;;;;8.23;6.65;;;;;;;18.19;62.00;96403.19;6245971;23;20008;-92
2021/09/28 10:10:58;;;;;;;9.63;7.28;;;;;;;18.27;61.67;96409.66;6245753;23;20020;-91
2021/09/28 10:13:56;;;;;;;6.57;5.93;;;;;;;18.48;61.80;96431.28;6245959;23;20042;-92
2021/09/28 10:16:35;;;;;;;9.27;6.97;;;;;;;18.28;58.83;96400.16;6244864;23;20087;-91
2021/09/28 10:19:13;;;;;;;7.25;6.55;;;;;;;18.31;61.67;96404.63;6246181;23;20008;-93
2021/09/28 10:21:43;;;;;;;6.65;5.55;;;;;;;18.70;67.94;96430.47;6246370;23;20075;-93
2021/09/28 10:24:17;;;;;;;;;;;;;;;18.83;67.27;96423.09;6247003;23;20019;-94
2021/09/28 10:27:13;;;;;;;8.88;6.47;;;;;;;18.68;59.99;96410.94;6246840;23;19904;-94
2021/09/28 10:29:51;;;;;;;13.95;7.00;;;;;;;18.78;69.68;96398.38;6237482;23;20150;-93
2021/09/28 10:32:26;;;;;;;10.48;6.88;;;;;;;19.13;74.27;96435.41;6246198;23;20007;-92
2021/09/28 10:35:10;;;;;;;11.48;7.00;;;;;;;19.20;59.65;96441.06;6254778;23;20063;-93
2021/09/28 10:37:39;;;;;;;7.68;6.18;;;;;;;19.28;57.48;96435.75;6245850;23;20004;-92
2021/09/28 10:40:05;;;;;;;8.75;6.40;;;;;;;19.11;58.57;96405.63;6245885;23;20004;-91
2021/09/28 10:42:50;;;;;;;13.40;7.10;;;;;;;19.46;60.88;96437.84;6245584;23;20329;-93
2021/09/28 10:45:39;;;;;;;7.88;6.22;;;;;;;19.62;62.35;96436.97;6245407;23;20087;-91
2021/09/28 10:48:07;;;;;;;7.35;6.13;;;;;;;19.37;62.34;96377.59;6245391;23;20057;-92
2021/09/28 10:50:35;;;;;;;8.25;6.22;;;;;;;19.69;59.37;96424.63;6246024;23;20008;-93
2021/09/28 10:53:06;;;;;;;6.93;5.72;;;;;;;19.70;57.27;96403.31;6245369;23;19996;-92
2021/09/28 10:55:39;;;;;;;7.47;5.38;;;;;;;19.88;53.50;96430.19;6246026;23;20007;-92
2021/09/28 10:58:17;;;;;;;7.05;5.70;;;;;;;19.68;53.19;96390.09;6245840;23;20359;-92
2021/09/28 11:00:48;;;;;;;7.10;5.45;;;;;;;20.07;52.51;96425.44;6245907;23;20030;-93
2021/09/28 11:03:13;;;;;;;;;;;;;;;20.26;57.72;96427.50;6255373;23;20383;-92
2021/09/28 11:05:42;;;;;;;8.57;5.88;;;;;;;20.34;53.08;96423.59;6250323;23;19907;-94
2021/09/28 11:08:14;;;;;;;10.00;5.60;;;;;;;20.23;54.59;96401.69;6249854;23;20044;-95
2021/09/28 11:10:53;;;;;;;8.07;5.57;;;;;;;20.28;53.86;96397.38;6245214;22;20031;-92
2021/09/28 11:13:19;;;;;;;7.55;5.80;;;;;;;20.42;50.81;96426.53;6245378;23;20004;-92
2021/09/28 11:15:44;;;;;;;7.88;5.90;;;;;;;20.44;51.88;96418.47;6245889;23;20448;-93
2021/09/28 11:18:12;;;;;;;6.57;5.20;;;;;;;20.25;52.01;96406.69;6244523;23;20125;-90
2021/09/28 11:20:39;;;;;;;7.82;5.75;;;;;;;20.30;51.40;96405.88;6240303;23;20027;-90
2021/09/28 11:23:11;;;;;;;9.55;5.35;;;;;;;20.32;48.23;96439.19;6242278;23;20008;-90
2021/09/28 11:25:39;;;;;;;8.68;5.07;;;;;;;20.12;48.02;96377.78;6245457;23;20306;-90
2021/09/28 11:28:11;;;;;;;10.27;5.32;;;;;;;20.51;47.69;96426.19;6245138;23;20091;-90